createdAt,value
2023-05-14T00:01:22.318Z,100479.81
2023-05-14T00:11:26.370Z,100479.91
2023-05-14T00:21:31.814Z,100485.47
2023-05-14T00:31:35.599Z,100474.16
2023-05-14T00:41:43.386Z,100460.16
2023-05-14T00:51:47.631Z,100453.41
2023-05-14T01:01:52.966Z,100453.34
2023-05-14T01:12:06.247Z,100458.72
2023-05-14T01:22:11.976Z,100447.22
2023-05-14T01:32:18.633Z,100437.75
2023-05-14T01:42:24.380Z,100445.16
2023-05-14T01:52:28.389Z,100443.00
2023-05-14T02:02:33.530Z,100437.16
2023-05-14T02:12:37.274Z,100436.88
2023-05-14T02:22:45.501Z,100434.94
2023-05-14T02:32:51.286Z,100423.16
2023-05-14T02:42:56.305Z,100426.84
2023-05-14T02:53:00.004Z,100429.50
2023-05-14T03:03:05.152Z,100428.88
2023-05-14T03:13:09.424Z,100424.06
2023-05-14T03:23:16.668Z,100426.88
2023-05-14T03:33:21.181Z,100412.31
2023-05-14T03:43:26.171Z,100423.97
2023-05-14T03:53:29.847Z,100428.22
2023-05-14T04:03:35.155Z,100425.03
2023-05-14T04:13:39.122Z,100419.00
2023-05-14T04:23:44.206Z,100435.69
2023-05-14T04:33:47.902Z,100426.66
2023-05-14T04:43:52.886Z,100433.84
2023-05-14T04:53:56.603Z,100434.91
2023-05-14T05:04:01.621Z,100434.06
2023-05-14T05:14:05.460Z,100432.56
2023-05-14T05:24:10.690Z,100442.41
2023-05-14T05:34:14.507Z,100436.94
2023-05-14T05:44:19.624Z,100433.81
2023-05-14T05:54:25.298Z,100432.13
2023-05-14T06:04:31.115Z,100433.03
2023-05-14T06:14:34.849Z,100443.06
2023-05-14T06:24:39.792Z,100436.13
2023-05-14T06:34:43.823Z,100442.13
2023-05-14T06:44:48.850Z,100427.31
2023-05-14T06:54:52.532Z,100425.81
2023-05-14T07:04:58.021Z,100416.19
2023-05-14T07:15:01.837Z,100402.94
2023-05-14T07:25:07.926Z,100381.03
2023-05-14T07:35:12.791Z,100374.56
2023-05-14T07:45:18.095Z,100360.41
2023-05-14T07:55:21.791Z,100354.75
2023-05-14T08:05:26.739Z,100345.97
2023-05-14T08:15:30.830Z,100324.28
2023-05-14T08:25:36.010Z,100323.00
2023-05-14T08:36:02.132Z,100315.38
2023-05-14T08:46:24.928Z,100302.84
2023-05-14T08:56:28.750Z,100282.72
2023-05-14T09:06:34.402Z,100283.38
2023-05-14T09:16:39.652Z,100264.00
2023-05-14T09:26:44.752Z,100271.53
2023-05-14T09:36:48.415Z,100269.44
2023-05-14T09:46:54.800Z,100271.75
2023-05-14T09:56:58.633Z,100270.88
2023-05-14T10:07:04.649Z,100263.16
2023-05-14T10:17:18.091Z,100253.63
2023-05-14T10:27:24.190Z,100242.28
2023-05-14T10:37:28.752Z,100231.34
2023-05-14T10:47:34.902Z,100236.22
2023-05-14T10:57:40.515Z,100230.34
2023-05-14T11:07:48.180Z,100229.09
2023-05-14T11:17:58.026Z,100219.66
2023-05-14T11:28:03.261Z,100202.88
2023-05-14T11:38:09.128Z,100203.06
2023-05-14T11:48:15.954Z,100178.16
2023-05-14T11:58:19.790Z,100175.53
2023-05-14T12:08:28.270Z,100168.69
2023-05-14T12:18:33.550Z,100158.47
2023-05-14T12:28:43.130Z,100150.78
2023-05-14T12:38:47.089Z,100131.03
2023-05-14T12:48:53.446Z,100118.16
2023-05-14T12:58:57.355Z,100106.25
2023-05-14T13:09:02.439Z,100095.09
2023-05-14T13:19:06.480Z,100089.09
2023-05-14T13:29:11.598Z,100079.66
2023-05-14T13:39:15.372Z,100069.38
2023-05-14T13:49:20.450Z,100047.06
2023-05-14T13:59:24.204Z,100035.00
2023-05-14T14:09:29.279Z,100028.25
2023-05-14T14:19:33.444Z,100010.25
2023-05-14T14:29:38.463Z,99991.41
2023-05-14T14:39:45.318Z,99980.09
2023-05-14T14:49:50.378Z,99971.41
2023-05-14T14:59:54.049Z,99971.28
2023-05-14T15:09:59.234Z,99959.38
2023-05-14T15:20:03.004Z,99953.41
2023-05-14T15:30:10.098Z,100000.88
2023-05-14T15:40:14.151Z,100000.75
2023-05-14T15:50:19.487Z,100012.66
2023-05-14T16:00:24.792Z,100007.53
2023-05-14T16:10:30.154Z,99991.38
2023-05-14T16:20:33.795Z,99979.47
2023-05-14T16:30:38.857Z,99976.03
2023-05-14T16:40:42.737Z,99979.44
2023-05-14T16:50:47.842Z,99977.78
2023-05-14T17:00:51.591Z,99975.94
2023-05-14T17:10:57.409Z,99983.50
2023-05-14T17:21:01.180Z,99982.53
2023-05-14T17:31:06.385Z,99971.75
2023-05-14T17:41:10.878Z,99976.94
2023-05-14T17:51:15.961Z,99990.78
2023-05-14T18:01:19.693Z,99994.47
2023-05-14T18:11:24.787Z,100003.28
2023-05-14T18:21:28.580Z,100016.63
2023-05-14T18:31:33.657Z,100018.53
2023-05-14T18:41:37.376Z,100035.03
2023-05-14T18:51:42.421Z,100039.84
2023-05-14T19:01:46.239Z,100058.41
2023-05-14T19:11:51.334Z,100075.84
2023-05-14T19:21:55.026Z,100072.44
2023-05-14T19:32:00.096Z,100090.81
2023-05-14T19:42:03.965Z,100088.13
2023-05-14T19:52:10.267Z,100090.47
2023-05-14T20:02:18.261Z,100093.97
2023-05-14T20:12:23.924Z,100095.28
2023-05-14T20:22:27.634Z,100097.03
2023-05-14T20:32:33.089Z,100091.19
2023-05-14T20:42:37.463Z,100076.69
2023-05-14T20:52:42.599Z,100081.13
2023-05-14T21:02:46.579Z,100077.41
2023-05-14T21:12:52.323Z,100072.97
2023-05-14T21:22:56.112Z,100061.59
2023-05-14T21:33:01.153Z,100062.75
2023-05-14T21:43:05.086Z,100056.25
2023-05-14T21:53:10.326Z,100049.31
2023-05-14T22:03:14.569Z,100034.38
2023-05-14T22:13:20.086Z,100038.00
2023-05-14T22:23:23.900Z,100033.72
2023-05-14T22:33:28.822Z,100026.03
2023-05-14T22:43:32.398Z,100025.47
2023-05-14T22:53:37.346Z,100027.34
2023-05-14T23:03:41.025Z,100016.75
2023-05-14T23:13:46.148Z,100008.09
2023-05-14T23:23:49.841Z,99998.84
2023-05-14T23:33:54.848Z,99991.09
2023-05-14T23:43:58.512Z,99988.31
2023-05-14T23:54:03.370Z,99972.75
